Time,TemperatureF,DewpointF,PressureIn,WindDirection,WindDirectionDegrees,WindSpeedMPH,WindSpeedGustMPH,Humidity,HourlyPrecipIn,Conditions,Clouds,dailyrainin,SoftwareType,DateUTC
2013-08-11 00:01:00,69.0,58.0,-100.00,NE,55,2.0,5.0,67,-99.99,,,-99.99,,2013-08-11 04:01:00,
2013-08-11 00:12:00,69.0,58.0,-100.00,ENE,65,2.0,6.0,68,-99.99,,,-99.99,,2013-08-11 04:12:00,
2013-08-11 00:22:00,69.0,58.0,-100.00,ENE,70,3.0,6.0,67,-99.99,,,-99.99,,2013-08-11 04:22:00,
2013-08-11 00:32:00,69.0,58.0,-100.00,East,80,2.0,6.0,68,-99.99,,,-99.99,,2013-08-11 04:32:00,
2013-08-11 00:43:00,69.0,58.0,-100.00,ENE,60,1.0,6.0,68,-99.99,,,-99.99,,2013-08-11 04:43:00,
2013-08-11 00:53:00,69.0,58.0,-100.00,ENE,60,1.0,6.0,68,-99.99,,,-99.99,,2013-08-11 04:53:00,
2013-08-11 01:02:00,69.0,58.0,-100.00,NE,55,4.0,6.0,69,-99.99,,,-99.99,,2013-08-11 05:02:00,
2013-08-11 01:25:00,69.0,58.0,-100.00,ENE,60,2.0,6.0,68,-99.99,,,-99.99,,2013-08-11 05:25:00,
2013-08-11 01:37:00,69.0,59.0,-100.00,ENE,65,1.0,4.0,69,-99.99,,,-99.99,,2013-08-11 05:37:00,
2013-08-11 01:46:00,69.0,59.0,-100.00,NE,55,4.0,6.0,69,-99.99,,,-99.99,,2013-08-11 05:46:00,
2013-08-11 01:54:00,69.0,59.0,-100.00,ENE,65,2.0,5.0,70,-99.99,,,-99.99,,2013-08-11 05:54:00,
2013-08-11 02:04:00,69.0,59.0,-100.00,ENE,70,2.0,5.0,70,-99.99,,,-99.99,,2013-08-11 06:04:00,
2013-08-11 02:17:00,69.0,59.0,-100.00,ENE,70,2.0,5.0,70,-99.99,,,-99.99,,2013-08-11 06:17:00,
2013-08-11 02:26:00,69.0,59.0,-100.00,ENE,70,4.0,6.0,71,-99.99,,,-99.99,,2013-08-11 06:26:00,
2013-08-11 02:36:00,69.0,59.0,-100.00,ENE,70,4.0,6.0,71,-99.99,,,-99.99,,2013-08-11 06:36:00,
2013-08-11 02:48:00,68.0,59.0,-100.00,ENE,70,3.0,5.0,71,-99.99,,,-99.99,,2013-08-11 06:48:00,
2013-08-11 02:57:00,68.0,59.0,-100.00,NE,40,4.0,6.0,71,-99.99,,,-99.99,,2013-08-11 06:57:00,
2013-08-11 03:06:00,68.0,59.0,-100.00,ENE,70,2.0,7.0,72,-99.99,,,-99.99,,2013-08-11 07:06:00,
2013-08-11 03:24:00,68.0,59.0,-100.00,ENE,65,4.0,6.0,72,-99.99,,,-99.99,,2013-08-11 07:24:00,
2013-08-11 03:36:00,68.0,59.0,-100.00,ENE,60,4.0,6.0,72,-99.99,,,-99.99,,2013-08-11 07:36:00,
2013-08-11 03:45:00,68.0,59.0,-100.00,ENE,60,4.0,6.0,72,-99.99,,,-99.99,,2013-08-11 07:45:00,
2013-08-11 03:54:00,68.0,59.0,-100.00,ENE,60,4.0,6.0,72,-99.99,,,-99.99,,2013-08-11 07:54:00,
2013-08-11 04:18:00,66.0,59.0,-100.00,NE,45,0.0,2.0,77,-99.99,,,-99.99,,2013-08-11 08:18:00,
2013-08-11 04:26:00,66.0,59.0,-100.00,East,80,0.0,4.0,78,-99.99,,,-99.99,,2013-08-11 08:26:00,
2013-08-11 04:36:00,66.0,59.0,-100.00,ENE,75,0.0,2.0,78,-99.99,,,-99.99,,2013-08-11 08:36:00,
2013-08-11 04:47:00,66.0,60.0,-100.00,ENE,65,1.0,2.0,78,-99.99,,,-99.99,,2013-08-11 08:47:00,
2013-08-11 04:57:00,67.0,60.0,-100.00,ENE,70,1.0,4.0,78,-99.99,,,-99.99,,2013-08-11 08:57:00,
2013-08-11 05:16:00,66.0,59.0,-100.00,ENE,75,3.0,5.0,78,-99.99,,,-99.99,,2013-08-11 09:16:00,
2013-08-11 05:35:00,65.0,59.0,-100.00,NNE,30,0.0,5.0,81,-99.99,,,-99.99,,2013-08-11 09:35:00,
2013-08-11 05:43:00,65.0,59.0,-100.00,NNE,30,0.0,5.0,81,-99.99,,,-99.99,,2013-08-11 09:43:00,
2013-08-11 05:58:00,63.0,59.0,-100.00,East,85,0.0,0.0,85,-99.99,,,-99.99,,2013-08-11 09:58:00,
2013-08-11 06:05:00,64.0,60.0,-100.00,SE,130,0.0,2.0,86,-99.99,,,-99.99,,2013-08-11 10:05:00,
2013-08-11 06:15:00,64.0,60.0,-100.00,ENE,70,0.0,2.0,86,-99.99,,,-99.99,,2013-08-11 10:15:00,
2013-08-11 06:35:00,64.0,60.0,-100.00,NE,55,1.0,2.0,87,-99.99,,,-99.99,,2013-08-11 10:35:00,
2013-08-11 06:46:00,64.0,60.0,-100.00,ENE,70,1.0,4.0,87,-99.99,,,-99.99,,2013-08-11 10:46:00,
2013-08-11 06:55:00,64.0,60.0,-100.00,ENE,70,1.0,4.0,87,-99.99,,,-99.99,,2013-08-11 10:55:00,
2013-08-11 07:06:00,64.0,60.0,-100.00,NE,40,1.0,3.0,87,-99.99,,,-99.99,,2013-08-11 11:06:00,
2013-08-11 07:15:00,64.0,60.0,-100.00,NE,40,1.0,3.0,87,-99.99,,,-99.99,,2013-08-11 11:15:00,
2013-08-11 07:24:00,64.0,60.0,-100.00,NE,50,1.0,3.0,86,-99.99,,,-99.99,,2013-08-11 11:24:00,
2013-08-11 07:47:00,65.0,60.0,-100.00,ENE,75,1.0,4.0,85,-99.99,,,-99.99,,2013-08-11 11:47:00,
2013-08-11 08:00:00,65.0,60.0,-100.00,ESE,120,1.0,3.0,81,-99.99,,,-99.99,,2013-08-11 12:00:00,
2013-08-11 08:06:00,66.0,59.0,-100.00,East,80,2.0,4.0,77,-99.99,,,-99.99,,2013-08-11 12:06:00,
2013-08-11 08:29:00,67.0,59.0,-100.00,NE,40,1.0,4.0,76,-99.99,,,-99.99,,2013-08-11 12:29:00,
2013-08-11 08:36:00,67.0,59.0,-100.00,NE,40,1.0,4.0,76,-99.99,,,-99.99,,2013-08-11 12:36:00,
2013-08-11 08:45:00,67.0,59.0,-100.00,NE,40,1.0,4.0,76,-99.99,,,-99.99,,2013-08-11 12:45:00,
2013-08-11 08:54:00,69.0,58.0,-100.00,ENE,75,4.0,7.0,67,-99.99,,,-99.99,,2013-08-11 12:54:00,
2013-08-11 09:16:00,71.0,56.0,-100.00,East,95,6.0,9.0,59,-99.99,,,-99.99,,2013-08-11 13:16:00,
2013-08-11 09:26:00,71.0,56.0,-100.00,ENE,70,4.0,7.0,58,-99.99,,,-99.99,,2013-08-11 13:26:00,
2013-08-11 09:39:00,72.0,56.0,-100.00,ENE,65,4.0,7.0,56,-99.99,,,-99.99,,2013-08-11 13:39:00,
2013-08-11 09:45:00,73.0,56.0,-100.00,ENE,70,4.0,7.0,54,-99.99,,,-99.99,,2013-08-11 13:45:00,
2013-08-11 09:55:00,74.0,56.0,-100.00,ENE,70,6.0,9.0,53,-99.99,,,-99.99,,2013-08-11 13:55:00,
2013-08-11 10:17:00,74.0,56.0,-100.00,East,80,4.0,8.0,53,-99.99,,,-99.99,,2013-08-11 14:17:00,
2013-08-11 10:24:00,75.0,57.0,-100.00,ENE,75,4.0,7.0,53,-99.99,,,-99.99,,2013-08-11 14:24:00,
2013-08-11 10:34:00,76.0,57.0,-100.00,East,100,2.0,8.0,51,-99.99,,,-99.99,,2013-08-11 14:34:00,
2013-08-11 10:48:00,76.0,56.0,-100.00,ESE,115,3.0,10.0,50,-99.99,,,-99.99,,2013-08-11 14:48:00,
2013-08-11 10:56:00,76.0,56.0,-100.00,ESE,115,3.0,10.0,50,-99.99,,,-99.99,,2013-08-11 14:56:00,
2013-08-11 11:08:00,75.0,56.0,-100.00,ENE,70,4.0,7.0,52,-99.99,,,-99.99,,2013-08-11 15:08:00,
2013-08-11 11:14:00,75.0,56.0,-100.00,NE,35,5.0,9.0,51,-99.99,,,-99.99,,2013-08-11 15:14:00,
2013-08-11 11:24:00,76.0,57.0,-100.00,ENE,60,4.0,9.0,50,-99.99,,,-99.99,,2013-08-11 15:24:00,
2013-08-11 11:39:00,77.0,57.0,-100.00,ENE,65,4.0,7.0,49,-99.99,,,-99.99,,2013-08-11 15:39:00,
2013-08-11 11:48:00,78.0,57.0,-100.00,East,100,2.0,9.0,47,-99.99,,,-99.99,,2013-08-11 15:48:00,
2013-08-11 11:57:00,80.0,58.0,-100.00,ENE,60,3.0,6.0,46,-99.99,,,-99.99,,2013-08-11 15:57:00,
2013-08-11 12:09:00,79.0,57.0,-100.00,East,95,2.0,7.0,47,-99.99,,,-99.99,,2013-08-11 16:09:00,
2013-08-11 12:14:00,79.0,56.0,-100.00,NE,50,4.0,9.0,45,-99.99,,,-99.99,,2013-08-11 16:14:00,
2013-08-11 12:28:00,80.0,56.0,-100.00,NE,45,3.0,6.0,44,-99.99,,,-99.99,,2013-08-11 16:28:00,
2013-08-11 12:39:00,80.0,56.0,-100.00,ENE,65,1.0,6.0,44,-99.99,,,-99.99,,2013-08-11 16:39:00,
2013-08-11 12:46:00,80.0,57.0,-100.00,WSW,240,0.0,4.0,46,-99.99,,,-99.99,,2013-08-11 16:46:00,
2013-08-11 12:55:00,80.0,57.0,-100.00,NE,45,2.0,7.0,46,-99.99,,,-99.99,,2013-08-11 16:55:00,
2013-08-11 13:08:00,81.0,58.0,-100.00,NE,35,1.0,6.0,45,-99.99,,,-99.99,,2013-08-11 17:08:00,
2013-08-11 13:13:00,80.0,59.0,-100.00,NNW,345,3.0,7.0,48,-99.99,,,-99.99,,2013-08-11 17:13:00,
2013-08-11 13:25:00,80.0,59.0,-100.00,NNW,345,3.0,7.0,48,-99.99,,,-99.99,,2013-08-11 17:25:00,
2013-08-11 13:45:00,77.0,61.0,-100.00,North,10,4.0,9.0,58,-99.99,,,-99.99,,2013-08-11 17:45:00,
2013-08-11 13:54:00,77.0,62.0,-100.00,North,5,6.0,12.0,58,-99.99,,,-99.99,,2013-08-11 17:54:00,
2013-08-11 14:06:00,77.0,62.0,-100.00,North,0,4.0,10.0,58,-99.99,,,-99.99,,2013-08-11 18:06:00,
2013-08-11 14:18:00,78.0,63.0,-100.00,North,355,2.0,10.0,59,-99.99,,,-99.99,,2013-08-11 18:18:00,
2013-08-11 14:28:00,78.0,61.0,-100.00,North,0,4.0,12.0,56,-99.99,,,-99.99,,2013-08-11 18:28:00,
2013-08-11 14:38:00,78.0,61.0,-100.00,NNE,20,4.0,9.0,57,-99.99,,,-99.99,,2013-08-11 18:38:00,
2013-08-11 14:47:00,77.0,61.0,-100.00,NNE,25,4.0,11.0,58,-99.99,,,-99.99,,2013-08-11 18:47:00,
2013-08-11 15:09:00,76.0,62.0,-100.00,North,0,6.0,11.0,61,-99.99,,,-99.99,,2013-08-11 19:09:00,
2013-08-11 15:16:00,77.0,62.0,-100.00,North,0,6.0,11.0,59,-99.99,,,-99.99,,2013-08-11 19:16:00,
2013-08-11 15:33:00,78.0,63.0,-100.00,North,0,4.0,11.0,59,-99.99,,,-99.99,,2013-08-11 19:33:00,
2013-08-11 15:50:00,77.0,63.0,-100.00,NE,35,5.0,11.0,62,-99.99,,,-99.99,,2013-08-11 19:50:00,
2013-08-11 15:56:00,77.0,63.0,-100.00,North,0,5.0,12.0,61,-99.99,,,-99.99,,2013-08-11 19:56:00,
2013-08-11 16:07:00,78.0,63.0,-100.00,North,0,5.0,11.0,60,-99.99,,,-99.99,,2013-08-11 20:07:00,
2013-08-11 16:19:00,78.0,63.0,-100.00,North,0,4.0,11.0,59,-99.99,,,-99.99,,2013-08-11 20:19:00,
2013-08-11 16:28:00,78.0,63.0,-100.00,North,0,4.0,10.0,59,-99.99,,,-99.99,,2013-08-11 20:28:00,
2013-08-11 16:38:00,79.0,63.0,-100.00,North,0,6.0,9.0,58,-99.99,,,-99.99,,2013-08-11 20:38:00,
2013-08-11 16:55:00,77.0,63.0,-100.00,North,10,4.0,11.0,61,-99.99,,,-99.99,,2013-08-11 20:55:00,
2013-08-11 17:07:00,78.0,63.0,-100.00,North,0,3.0,9.0,60,-99.99,,,-99.99,,2013-08-11 21:07:00,
2013-08-11 17:13:00,78.0,63.0,-100.00,North,0,3.0,9.0,60,-99.99,,,-99.99,,2013-08-11 21:13:00,
2013-08-11 17:27:00,77.0,62.0,-100.00,NNE,15,4.0,9.0,60,-99.99,,,-99.99,,2013-08-11 21:27:00,
2013-08-11 17:34:00,78.0,62.0,-100.00,North,5,3.0,10.0,59,-99.99,,,-99.99,,2013-08-11 21:34:00,
2013-08-11 17:46:00,77.0,62.0,-100.00,NE,35,4.0,7.0,58,-99.99,,,-99.99,,2013-08-11 21:46:00,
2013-08-11 17:59:00,77.0,62.0,-100.00,North,0,4.0,9.0,58,-99.99,,,-99.99,,2013-08-11 21:59:00,
2013-08-11 18:04:00,78.0,60.0,-100.00,North,0,3.0,8.0,54,-99.99,,,-99.99,,2013-08-11 22:04:00,
2013-08-11 18:16:00,78.0,60.0,-100.00,NNE,20,4.0,6.0,52,-99.99,,,-99.99,,2013-08-11 22:16:00,
2013-08-11 18:25:00,78.0,58.0,-100.00,North,350,2.0,8.0,50,-99.99,,,-99.99,,2013-08-11 22:25:00,
2013-08-11 18:36:00,78.0,62.0,-100.00,North,5,1.0,7.0,57,-99.99,,,-99.99,,2013-08-11 22:36:00,
2013-08-11 18:46:00,78.0,60.0,-100.00,North,0,2.0,7.0,53,-99.99,,,-99.99,,2013-08-11 22:46:00,
2013-08-11 18:55:00,78.0,60.0,-100.00,North,0,2.0,7.0,53,-99.99,,,-99.99,,2013-08-11 22:55:00,
2013-08-11 19:05:00,78.0,60.0,-100.00,North,0,2.0,7.0,53,-99.99,,,-99.99,,2013-08-11 23:05:00,
2013-08-11 19:28:00,77.0,59.0,-100.00,NNE,20,1.0,7.0,53,-99.99,,,-99.99,,2013-08-11 23:28:00,
2013-08-11 19:35:00,77.0,59.0,-100.00,NNE,20,1.0,7.0,53,-99.99,,,-99.99,,2013-08-11 23:35:00,
2013-08-11 19:48:00,78.0,58.0,-100.00,NE,35,2.0,4.0,51,-99.99,,,-99.99,,2013-08-11 23:48:00,
2013-08-11 19:56:00,78.0,58.0,-100.00,North,0,0.0,3.0,50,-99.99,,,-99.99,,2013-08-11 23:56:00,
2013-08-11 20:06:00,78.0,59.0,-100.00,North,0,1.0,3.0,51,-99.99,,,-99.99,,2013-08-12 00:06:00,
2013-08-11 20:25:00,77.0,59.0,-100.00,North,5,0.0,1.0,54,-99.99,,,-99.99,,2013-08-12 00:25:00,
2013-08-11 20:37:00,75.0,60.0,-100.00,NNW,335,0.0,1.0,59,-99.99,,,-99.99,,2013-08-12 00:37:00,
2013-08-11 20:54:00,73.0,60.0,-100.00,West,275,0.0,1.0,65,-99.99,,,-99.99,,2013-08-12 00:54:00,
2013-08-11 21:07:00,73.0,60.0,-100.00,West,275,0.0,1.0,65,-99.99,,,-99.99,,2013-08-12 01:07:00,
2013-08-11 21:14:00,71.0,61.0,-100.00,NW,310,0.0,0.0,69,-99.99,,,-99.99,,2013-08-12 01:14:00,
2013-08-11 21:26:00,70.0,61.0,-100.00,WNW,290,0.0,0.0,71,-99.99,,,-99.99,,2013-08-12 01:26:00,
2013-08-11 21:37:00,70.0,61.0,-100.00,WNW,295,0.0,0.0,74,-99.99,,,-99.99,,2013-08-12 01:37:00,
2013-08-11 21:46:00,70.0,61.0,-100.00,SW,220,0.0,0.0,74,-99.99,,,-99.99,,2013-08-12 01:46:00,
2013-08-11 21:55:00,70.0,61.0,-100.00,SW,220,0.0,0.0,74,-99.99,,,-99.99,,2013-08-12 01:55:00,
2013-08-11 22:08:00,69.0,62.0,-100.00,NE,50,0.0,2.0,77,-99.99,,,-99.99,,2013-08-12 02:08:00,
2013-08-11 22:15:00,69.0,62.0,-100.00,NE,50,0.0,2.0,77,-99.99,,,-99.99,,2013-08-12 02:15:00,
2013-08-11 22:24:00,69.0,62.0,-100.00,SSE,165,0.0,0.0,77,-99.99,,,-99.99,,2013-08-12 02:24:00,
2013-08-11 22:36:00,70.0,62.0,-100.00,SSE,155,0.0,1.0,75,-99.99,,,-99.99,,2013-08-12 02:36:00,
2013-08-11 23:00:00,71.0,61.0,-100.00,SSW,195,0.0,0.0,69,-99.99,,,-99.99,,2013-08-12 03:00:00,
2013-08-11 23:15:00,71.0,61.0,-100.00,ESE,115,0.0,0.0,70,-99.99,,,-99.99,,2013-08-12 03:15:00,
2013-08-11 23:25:00,70.0,60.0,-100.00,SSW,200,0.0,0.0,71,-99.99,,,-99.99,,2013-08-12 03:25:00,
2013-08-11 23:45:00,70.0,60.0,-100.00,South,170,0.0,0.0,71,-99.99,,,-99.99,,2013-08-12 03:45:00,